createdAt,value
2019-04-16T00:00:02.326Z,6.83
2019-04-16T00:03:06.227Z,6.90
2019-04-16T00:06:25.707Z,6.60
2019-04-16T00:09:45.103Z,6.90
2019-04-16T00:13:26.076Z,7.17
2019-04-16T00:16:30.048Z,7.77
2019-04-16T00:19:34.776Z,7.03
2019-04-16T00:22:46.295Z,7.10
2019-04-16T00:25:52.046Z,7.57
2019-04-16T00:28:55.674Z,7.07
2019-04-16T00:32:07.898Z,7.83
2019-04-16T00:35:10.142Z,7.70
2019-04-16T00:38:13.947Z,7.13
2019-04-16T00:41:17.801Z,7.20
2019-04-16T00:44:21.670Z,7.30
2019-04-16T00:47:25.484Z,7.07
2019-04-16T00:50:29.372Z,6.73
2019-04-16T00:53:33.305Z,7.13
2019-04-16T00:56:37.129Z,7.37
2019-04-16T00:59:40.954Z,6.80
2019-04-16T01:02:46.963Z,7.17
2019-04-16T01:05:50.402Z,7.00
2019-04-16T01:08:55.182Z,6.97
2019-04-16T01:11:59.587Z,6.30
2019-04-16T01:15:03.482Z,6.73
2019-04-16T01:18:08.868Z,6.20
2019-04-16T01:21:14.152Z,6.23
2019-04-16T01:24:20.221Z,6.23
2019-04-16T01:27:32.356Z,6.30
2019-04-16T01:30:46.020Z,6.80
2019-04-16T01:33:57.768Z,5.73
2019-04-16T01:37:09.595Z,5.67
2019-04-16T01:40:18.458Z,6.47
2019-04-16T01:43:25.559Z,5.40
2019-04-16T01:46:26.682Z,5.20
2019-04-16T01:49:30.526Z,5.17
2019-04-16T01:52:34.319Z,5.13
2019-04-16T01:55:38.219Z,5.10
2019-04-16T01:58:42.084Z,4.67
2019-04-16T02:01:45.954Z,4.30
2019-04-16T02:04:52.080Z,4.80
2019-04-16T02:07:56.404Z,4.40
2019-04-16T02:11:01.034Z,4.50
2019-04-16T02:14:05.172Z,4.70
2019-04-16T02:17:09.081Z,4.20
2019-04-16T02:20:13.165Z,3.70
2019-04-16T02:23:17.475Z,4.37
2019-04-16T02:26:23.553Z,4.50
2019-04-16T02:29:29.746Z,3.73
2019-04-16T02:32:32.467Z,3.90
2019-04-16T02:35:36.265Z,3.63
2019-04-16T02:38:46.264Z,3.83
2019-04-16T02:41:45.683Z,3.70
2019-04-16T02:44:50.373Z,3.60
2019-04-16T02:47:54.413Z,3.77
2019-04-16T02:51:09.179Z,3.47
2019-04-16T02:54:37.822Z,3.03
2019-04-16T02:58:00.133Z,3.30
2019-04-16T03:01:30.732Z,3.80
2019-04-16T03:04:39.415Z,3.63
2019-04-16T03:07:43.312Z,3.23
2019-04-16T03:10:48.031Z,3.73
2019-04-16T03:13:52.869Z,4.37
2019-04-16T03:17:19.369Z,3.93
2019-04-16T03:20:24.037Z,3.97
2019-04-16T03:23:28.451Z,3.47
2019-04-16T03:26:32.310Z,3.37
2019-04-16T03:29:36.278Z,3.73
2019-04-16T03:32:52.343Z,4.20
2019-04-16T03:35:57.784Z,3.83
2019-04-16T03:39:01.860Z,4.60
2019-04-16T03:42:05.763Z,4.20
2019-04-16T03:45:10.277Z,3.60
2019-04-16T03:48:14.226Z,3.53
2019-04-16T03:51:18.129Z,4.10
2019-04-16T03:54:22.628Z,3.87
2019-04-16T03:57:27.016Z,3.73
2019-04-16T04:00:30.815Z,4.40
2019-04-16T04:03:34.606Z,4.50
2019-04-16T04:06:39.620Z,4.03
2019-04-16T04:09:44.053Z,4.20
2019-04-16T04:12:47.901Z,4.60
2019-04-16T04:15:54.894Z,4.37
2019-04-16T04:18:57.501Z,4.27
2019-04-16T04:22:01.329Z,3.60
2019-04-16T04:25:05.829Z,4.23
2019-04-16T04:28:09.715Z,4.37
2019-04-16T04:31:13.530Z,3.93
2019-04-16T04:34:17.794Z,4.00
2019-04-16T04:37:21.731Z,4.07
2019-04-16T04:40:25.556Z,4.70
2019-04-16T04:43:31.964Z,4.17
2019-04-16T04:46:35.066Z,4.10
2019-04-16T04:49:38.907Z,3.83
2019-04-16T04:52:43.220Z,3.97
2019-04-16T04:55:48.274Z,3.90
2019-04-16T04:58:52.104Z,3.83
2019-04-16T05:01:55.916Z,3.90
2019-04-16T05:05:06.809Z,3.13
2019-04-16T05:08:10.747Z,3.60
2019-04-16T05:11:15.829Z,3.53
2019-04-16T05:14:20.299Z,3.70
2019-04-16T05:17:26.827Z,4.07
2019-04-16T05:20:30.687Z,3.50
2019-04-16T05:23:37.556Z,3.73
2019-04-16T05:26:40.004Z,4.23
2019-04-16T05:29:48.600Z,3.70
2019-04-16T05:32:49.383Z,4.13
2019-04-16T05:35:53.197Z,3.43
2019-04-16T05:38:57.015Z,3.30
2019-04-16T05:42:00.903Z,3.67
2019-04-16T05:45:05.647Z,3.43
2019-04-16T05:48:10.137Z,3.67
2019-04-16T05:51:14.030Z,4.20
2019-04-16T05:54:41.504Z,3.30
2019-04-16T05:57:46.451Z,4.10
2019-04-16T06:01:04.033Z,3.30
2019-04-16T06:04:07.951Z,3.03
2019-04-16T06:07:11.758Z,3.60
2019-04-16T06:10:18.135Z,2.93
2019-04-16T06:13:28.940Z,3.47
2019-04-16T06:16:57.611Z,3.30
2019-04-16T06:20:25.400Z,3.17
2019-04-16T06:23:48.514Z,3.43
2019-04-16T06:27:14.520Z,3.20
2019-04-16T06:30:32.942Z,3.40
2019-04-16T06:33:54.213Z,3.17
2019-04-16T06:37:21.603Z,3.30
2019-04-16T06:41:03.343Z,3.57
2019-04-16T06:44:12.731Z,3.07
2019-04-16T06:47:34.495Z,3.20
2019-04-16T06:50:58.671Z,2.63
2019-04-16T06:54:33.604Z,2.33
2019-04-16T06:57:54.809Z,2.63
2019-04-16T07:01:16.316Z,2.97
2019-04-16T07:04:39.299Z,3.53
2019-04-16T07:08:00.811Z,3.13
2019-04-16T07:11:04.732Z,2.70
2019-04-16T07:14:11.572Z,3.60
2019-04-16T07:17:17.339Z,2.70
2019-04-16T07:20:19.911Z,3.00
2019-04-16T07:23:24.767Z,2.73
2019-04-16T07:26:29.333Z,2.50
2019-04-16T07:29:37.160Z,3.10
2019-04-16T07:33:11.980Z,3.17
2019-04-16T07:36:43.738Z,2.63
2019-04-16T07:39:57.635Z,2.67
2019-04-16T07:43:31.004Z,3.53
2019-04-16T07:46:56.687Z,2.90
2019-04-16T07:50:25.530Z,3.27
2019-04-16T07:53:39.611Z,2.80
2019-04-16T07:56:46.679Z,2.43
2019-04-16T07:59:50.616Z,2.90
2019-04-16T08:02:54.723Z,2.87
2019-04-16T08:05:58.667Z,3.20
2019-04-16T08:09:02.607Z,2.93
2019-04-16T08:12:10.772Z,3.17
2019-04-16T08:15:15.258Z,3.17
2019-04-16T08:18:18.081Z,2.73
2019-04-16T08:21:22.681Z,2.90
2019-04-16T08:24:31.559Z,2.87
2019-04-16T08:27:35.410Z,2.70
2019-04-16T08:30:39.621Z,3.10
2019-04-16T08:33:43.605Z,3.37
2019-04-16T08:36:47.444Z,3.20
2019-04-16T08:39:51.278Z,3.27
2019-04-16T08:42:57.522Z,3.10
2019-04-16T08:46:00.701Z,2.50
2019-04-16T08:49:04.971Z,3.17
2019-04-16T08:52:10.170Z,2.50
2019-04-16T08:55:14.608Z,3.13
2019-04-16T08:58:18.514Z,3.57
2019-04-16T09:01:27.066Z,3.23
2019-04-16T09:04:34.275Z,3.03
2019-04-16T09:07:39.505Z,2.70
2019-04-16T09:10:44.761Z,2.77
2019-04-16T09:13:53.397Z,3.13
2019-04-16T09:17:04.711Z,2.70
2019-04-16T09:20:10.672Z,3.03
2019-04-16T09:23:14.557Z,3.00
2019-04-16T09:26:32.838Z,2.90
2019-04-16T09:29:58.763Z,2.87
2019-04-16T09:33:34.451Z,3.07
2019-04-16T09:36:56.105Z,3.40
2019-04-16T09:40:18.592Z,2.70
2019-04-16T09:43:23.906Z,3.13
2019-04-16T09:46:49.769Z,3.10
2019-04-16T09:49:34.289Z,3.20
2019-04-16T09:52:39.221Z,3.27
2019-04-16T09:55:43.129Z,3.20
2019-04-16T09:58:46.942Z,3.40
2019-04-16T10:01:54.241Z,3.60
2019-04-16T10:04:58.239Z,3.27
2019-04-16T10:08:02.063Z,3.10
2019-04-16T10:11:06.495Z,3.20
2019-04-16T10:14:10.533Z,3.10
2019-04-16T10:17:14.786Z,3.50
2019-04-16T10:20:18.766Z,3.40
2019-04-16T10:23:41.619Z,3.83
2019-04-16T10:26:47.306Z,3.53
2019-04-16T10:29:51.160Z,3.70
2019-04-16T10:32:55.160Z,3.30
2019-04-16T10:36:01.103Z,3.47
2019-04-16T10:39:24.608Z,3.80
2019-04-16T10:42:50.507Z,3.63
2019-04-16T10:46:19.096Z,3.87
2019-04-16T10:49:51.041Z,3.60
2019-04-16T10:53:16.657Z,3.90
2019-04-16T10:56:39.472Z,4.30
2019-04-16T11:00:08.567Z,4.33
2019-04-16T11:03:19.844Z,4.43
2019-04-16T11:06:35.254Z,4.00
2019-04-16T11:09:39.193Z,3.53
2019-04-16T11:12:43.007Z,3.40
2019-04-16T11:15:46.829Z,3.57
2019-04-16T11:18:50.797Z,4.43
2019-04-16T11:21:54.753Z,3.87
2019-04-16T11:24:58.637Z,4.00
2019-04-16T11:28:02.589Z,3.77
2019-04-16T11:31:10.674Z,3.60
2019-04-16T11:34:14.707Z,4.10
2019-04-16T11:37:18.518Z,3.73
2019-04-16T11:40:22.422Z,3.90
2019-04-16T11:43:26.375Z,3.50
2019-04-16T11:46:30.315Z,3.53
2019-04-16T11:49:34.248Z,3.90
2019-04-16T11:52:39.936Z,4.10
2019-04-16T11:55:43.834Z,3.73
2019-04-16T11:58:47.763Z,4.50
2019-04-16T12:02:06.776Z,3.90
2019-04-16T12:05:25.659Z,4.07
2019-04-16T12:08:42.710Z,4.37
2019-04-16T12:11:52.951Z,4.33
2019-04-16T12:15:17.515Z,3.57
2019-04-16T12:18:47.711Z,3.90
2019-04-16T12:22:03.747Z,4.00
2019-04-16T12:25:26.695Z,4.53
2019-04-16T12:28:59.473Z,4.33
2019-04-16T12:32:26.808Z,4.37
2019-04-16T12:35:45.537Z,4.17
2019-04-16T12:39:00.202Z,4.00
2019-04-16T12:42:17.313Z,4.77
2019-04-16T12:45:32.942Z,4.43
2019-04-16T12:49:08.036Z,4.70
2019-04-16T12:52:39.927Z,4.90
2019-04-16T12:56:06.037Z,4.23
2019-04-16T12:59:31.666Z,4.87
2019-04-16T13:02:57.387Z,4.47
2019-04-16T13:06:29.495Z,4.87
2019-04-16T13:09:51.081Z,4.67
2019-04-16T13:13:26.142Z,4.70
2019-04-16T13:16:47.538Z,4.60
2019-04-16T13:20:08.473Z,5.00
2019-04-16T13:23:19.544Z,4.50
2019-04-16T13:26:26.083Z,4.60
2019-04-16T13:29:31.771Z,4.40
2019-04-16T13:32:35.570Z,5.30
2019-04-16T13:35:39.483Z,5.40
2019-04-16T13:38:47.980Z,5.47
2019-04-16T13:41:51.876Z,5.10
2019-04-16T13:45:17.014Z,5.03
2019-04-16T13:48:31.874Z,4.80
2019-04-16T13:51:35.864Z,4.97
2019-04-16T13:54:48.663Z,4.03
2019-04-16T13:58:01.426Z,5.03
2019-04-16T14:01:18.903Z,4.80
2019-04-16T14:04:22.740Z,4.67
2019-04-16T14:07:26.624Z,4.77
2019-04-16T14:10:30.471Z,4.60
2019-04-16T14:13:34.401Z,4.70
2019-04-16T14:16:40.878Z,4.70
2019-04-16T14:19:43.882Z,4.77
2019-04-16T14:22:47.821Z,5.50
2019-04-16T14:25:51.661Z,5.00
2019-04-16T14:28:56.991Z,4.17
2019-04-16T14:32:00.869Z,4.87
2019-04-16T14:35:10.348Z,3.90
2019-04-16T14:38:17.253Z,4.20
2019-04-16T14:41:21.055Z,4.07
2019-04-16T14:44:27.141Z,4.57
2019-04-16T14:47:33.000Z,4.33
2019-04-16T14:50:36.616Z,4.60
2019-04-16T14:53:51.249Z,4.63
2019-04-16T14:56:57.342Z,4.90
2019-04-16T15:00:24.539Z,5.17
2019-04-16T15:03:37.166Z,5.33
2019-04-16T15:07:03.505Z,5.60
2019-04-16T15:10:16.429Z,4.73
2019-04-16T15:13:34.965Z,4.77
2019-04-16T15:16:50.881Z,4.83
2019-04-16T15:20:06.854Z,5.73
2019-04-16T15:23:29.007Z,5.20
2019-04-16T15:26:53.342Z,5.77
2019-04-16T15:30:13.870Z,5.23
2019-04-16T15:33:48.610Z,5.83
2019-04-16T15:37:07.499Z,5.37
2019-04-16T15:40:40.572Z,5.00
2019-04-16T15:43:56.483Z,5.90
2019-04-16T15:47:05.529Z,5.47
2019-04-16T15:50:35.751Z,5.57
2019-04-16T15:53:58.146Z,5.43
2019-04-16T15:57:18.688Z,5.23
2019-04-16T16:00:36.213Z,5.40
2019-04-16T16:04:11.301Z,5.30
2019-04-16T16:07:18.560Z,4.77
2019-04-16T16:10:26.646Z,5.07
2019-04-16T16:13:30.448Z,5.30
2019-04-16T16:16:41.756Z,5.57
2019-04-16T16:19:39.886Z,5.23
2019-04-16T16:22:43.711Z,5.27
2019-04-16T16:25:47.617Z,5.40
2019-04-16T16:28:51.427Z,5.23
2019-04-16T16:31:55.308Z,5.67
2019-04-16T16:34:59.358Z,5.57
2019-04-16T16:38:03.573Z,5.90
2019-04-16T16:41:07.571Z,5.90
2019-04-16T16:44:11.367Z,5.40
2019-04-16T16:47:40.472Z,5.60
2019-04-16T16:50:44.782Z,5.07
2019-04-16T16:54:12.308Z,5.80
2019-04-16T16:57:20.397Z,5.93
2019-04-16T17:00:42.215Z,5.10
2019-04-16T17:04:04.045Z,5.27
2019-04-16T17:07:08.827Z,5.00
2019-04-16T17:10:12.793Z,4.80
2019-04-16T17:13:20.937Z,4.80
2019-04-16T17:16:22.271Z,4.67
2019-04-16T17:19:26.091Z,5.07
2019-04-16T17:22:29.917Z,4.93
2019-04-16T17:25:36.654Z,5.00
2019-04-16T17:28:40.370Z,4.70
2019-04-16T17:31:44.891Z,4.40
2019-04-16T17:34:48.809Z,4.40
2019-04-16T17:37:52.626Z,4.00
2019-04-16T17:41:00.203Z,4.00
2019-04-16T17:44:16.571Z,4.00
2019-04-16T17:47:48.632Z,4.60
2019-04-16T17:51:17.479Z,4.27
2019-04-16T17:54:31.757Z,5.13
2019-04-16T17:57:51.816Z,4.90
2019-04-16T18:01:11.063Z,4.47
2019-04-16T18:04:36.771Z,4.10
2019-04-16T18:07:58.502Z,4.23
2019-04-16T18:11:10.810Z,4.33
2019-04-16T18:14:33.838Z,4.03
2019-04-16T18:17:57.130Z,4.17
2019-04-16T18:21:19.861Z,4.67
2019-04-16T18:24:28.882Z,4.77
2019-04-16T18:27:40.052Z,4.57
2019-04-16T18:30:49.891Z,5.03
2019-04-16T18:34:08.251Z,4.97
2019-04-16T18:37:38.365Z,4.80
2019-04-16T18:41:07.219Z,4.50
2019-04-16T18:44:42.227Z,4.67
2019-04-16T18:48:13.819Z,3.93
2019-04-16T18:51:16.910Z,4.47
2019-04-16T18:54:21.386Z,3.90
2019-04-16T18:57:25.256Z,3.77
2019-04-16T19:00:37.985Z,4.10
2019-04-16T19:03:42.009Z,3.73
2019-04-16T19:06:45.796Z,3.83
2019-04-16T19:09:49.621Z,3.33
2019-04-16T19:12:53.537Z,3.77
2019-04-16T19:15:57.334Z,4.00
2019-04-16T19:19:01.183Z,3.77
2019-04-16T19:22:05.234Z,4.60
2019-04-16T19:25:09.440Z,4.37
2019-04-16T19:28:13.328Z,4.00
2019-04-16T19:31:17.162Z,4.10
2019-04-16T19:34:20.971Z,4.23
2019-04-16T19:37:24.808Z,3.57
2019-04-16T19:40:28.595Z,4.33
2019-04-16T19:43:35.274Z,4.73
2019-04-16T19:46:38.088Z,3.57
2019-04-16T19:49:42.040Z,3.90
2019-04-16T19:52:45.949Z,4.97
2019-04-16T19:55:49.961Z,5.13
2019-04-16T19:58:53.761Z,4.23
2019-04-16T20:02:00.199Z,4.80
2019-04-16T20:05:03.186Z,4.97
2019-04-16T20:08:07.005Z,4.90
2019-04-16T20:11:10.921Z,5.00
2019-04-16T20:14:14.741Z,5.53
2019-04-16T20:17:18.547Z,5.27
2019-04-16T20:20:22.393Z,5.13
2019-04-16T20:23:26.198Z,5.20
2019-04-16T20:26:32.441Z,5.33
2019-04-16T20:29:35.652Z,6.07
2019-04-16T20:32:42.275Z,5.10
2019-04-16T20:35:50.359Z,5.70
2019-04-16T20:38:50.666Z,5.57
2019-04-16T20:41:58.992Z,5.80
2019-04-16T20:45:00.075Z,6.17
2019-04-16T20:48:04.033Z,5.63
2019-04-16T20:51:07.849Z,6.30
2019-04-16T20:54:13.792Z,5.80
2019-04-16T20:57:17.233Z,5.77
2019-04-16T21:00:27.379Z,6.13
2019-04-16T21:03:31.606Z,6.20
2019-04-16T21:06:40.519Z,5.93
2019-04-16T21:09:41.188Z,6.67
2019-04-16T21:12:46.039Z,5.93
2019-04-16T21:15:50.035Z,6.30
2019-04-16T21:18:53.919Z,6.33
2019-04-16T21:22:01.310Z,6.17
2019-04-16T21:25:03.724Z,6.70
2019-04-16T21:28:14.944Z,6.30
2019-04-16T21:31:26.766Z,6.13
2019-04-16T21:34:45.185Z,5.93
2019-04-16T21:38:17.379Z,6.33
2019-04-16T21:41:21.179Z,6.13
2019-04-16T21:44:25.032Z,6.50
2019-04-16T21:47:28.912Z,5.97
2019-04-16T21:50:32.717Z,6.13
2019-04-16T21:53:36.562Z,6.33
2019-04-16T21:56:40.407Z,5.50
2019-04-16T21:59:44.254Z,6.77
2019-04-16T22:02:48.204Z,6.07
2019-04-16T22:05:52.205Z,5.87
2019-04-16T22:08:58.855Z,5.93
2019-04-16T22:12:01.655Z,5.03
2019-04-16T22:15:06.726Z,6.40
2019-04-16T22:18:10.537Z,5.47
2019-04-16T22:21:14.435Z,5.50
2019-04-16T22:24:19.739Z,5.97
2019-04-16T22:27:23.822Z,6.27
2019-04-16T22:30:27.659Z,6.00
2019-04-16T22:33:31.565Z,6.23
2019-04-16T22:36:35.538Z,5.23
2019-04-16T22:43:39.675Z,5.83
2019-04-16T22:46:49.987Z,5.77
2019-04-16T22:49:56.707Z,5.87
2019-04-16T22:52:59.517Z,4.67
2019-04-16T22:56:03.437Z,5.20
2019-04-16T22:59:08.365Z,5.07
2019-04-16T23:02:24.075Z,5.70
2019-04-16T23:05:30.803Z,5.33
2019-04-16T23:08:33.398Z,5.47
2019-04-16T23:11:39.128Z,5.20
2019-04-16T23:14:43.058Z,4.50
2019-04-16T23:17:46.950Z,5.27
2019-04-16T23:20:50.823Z,4.63
2019-04-16T23:23:54.635Z,4.17
2019-04-16T23:27:04.256Z,4.63
2019-04-16T23:30:05.534Z,5.03
2019-04-16T23:33:09.715Z,4.17
2019-04-16T23:36:16.545Z,4.70
2019-04-16T23:39:19.174Z,5.00
2019-04-16T23:42:22.990Z,4.30
2019-04-16T23:45:51.956Z,4.33
2019-04-16T23:49:01.718Z,4.50
2019-04-16T23:52:14.200Z,5.67
2019-04-16T23:55:35.863Z,4.50
2019-04-16T23:59:01.464Z,4.23
